createdAt,value
2017-03-03T00:00:40.525Z,6.31
2017-03-03T00:01:40.540Z,6.22
2017-03-03T00:02:40.559Z,6.19
2017-03-03T00:03:40.599Z,6.15
2017-03-03T00:04:40.605Z,6.15
2017-03-03T00:05:55.151Z,6.19
2017-03-03T00:06:40.649Z,6.17
2017-03-03T00:07:40.709Z,6.15
2017-03-03T00:08:40.682Z,6.15
2017-03-03T00:09:55.216Z,6.04
2017-03-03T00:10:40.705Z,6.12
2017-03-03T00:11:40.724Z,6.06
2017-03-03T00:12:40.742Z,5.96
2017-03-03T00:13:40.382Z,5.94
2017-03-03T00:14:40.782Z,5.94
2017-03-03T00:15:55.320Z,5.85
2017-03-03T00:16:40.811Z,5.82
2017-03-03T00:17:40.829Z,5.83
2017-03-03T00:18:40.852Z,5.81
2017-03-03T00:19:40.867Z,5.74
2017-03-03T00:20:40.889Z,5.74
2017-03-03T00:21:40.909Z,5.74
2017-03-03T00:22:40.926Z,5.68
2017-03-03T00:23:40.561Z,5.64
2017-03-03T00:24:40.965Z,5.68
2017-03-03T00:25:55.518Z,5.63
2017-03-03T00:27:41.028Z,5.61
2017-03-03T00:28:41.031Z,5.68
2017-03-03T00:29:41.060Z,5.72
2017-03-03T00:30:41.064Z,5.68
2017-03-03T00:31:41.099Z,5.83
2017-03-03T00:32:41.111Z,5.85
2017-03-03T00:33:41.132Z,5.79
2017-03-03T00:35:41.157Z,5.82
2017-03-03T00:36:41.176Z,5.79
2017-03-03T00:37:41.203Z,5.78
2017-03-03T00:38:41.211Z,5.71
2017-03-03T00:39:41.223Z,5.81
2017-03-03T00:40:41.270Z,5.63
2017-03-03T00:41:55.786Z,5.6
2017-03-03T00:42:41.313Z,5.64
2017-03-03T00:43:41.298Z,5.57
2017-03-03T00:44:41.319Z,5.54
2017-03-03T00:45:41.334Z,5.61
2017-03-03T00:46:41.370Z,5.48
2017-03-03T00:47:41.367Z,5.49
2017-03-03T00:48:40.997Z,5.57
2017-03-03T00:49:41.407Z,5.49
2017-03-03T00:50:41.424Z,5.53
2017-03-03T00:51:41.459Z,5.58
2017-03-03T00:52:41.457Z,5.51
2017-03-03T00:53:56.009Z,5.4
2017-03-03T00:54:41.508Z,5.45
2017-03-03T00:55:41.529Z,5.42
2017-03-03T00:56:41.526Z,5.53
2017-03-03T00:57:56.075Z,5.39
2017-03-03T00:58:41.560Z,5.35
2017-03-03T00:59:41.583Z,5.46
2017-03-03T01:01:41.613Z,5.49
2017-03-03T01:02:56.160Z,5.53
2017-03-03T01:04:41.671Z,5.51
2017-03-03T01:05:41.685Z,5.56
2017-03-03T01:06:41.716Z,5.56
2017-03-03T01:07:41.751Z,5.58
2017-03-03T01:08:41.371Z,5.61
2017-03-03T01:09:41.760Z,5.61
2017-03-03T01:10:41.818Z,5.61
2017-03-03T01:11:41.792Z,5.71
2017-03-03T01:12:56.344Z,5.83
2017-03-03T01:13:41.827Z,5.82
2017-03-03T01:14:41.877Z,5.83
2017-03-03T01:15:41.866Z,5.81
2017-03-03T01:16:41.896Z,5.83
2017-03-03T01:17:41.908Z,5.82
2017-03-03T01:18:56.458Z,5.75
2017-03-03T01:19:41.933Z,5.76
2017-03-03T01:20:41.971Z,5.75
2017-03-03T01:21:41.978Z,5.74
2017-03-03T01:22:41.984Z,5.65
2017-03-03T01:24:42.027Z,5.68
2017-03-03T01:25:41.658Z,5.71
2017-03-03T01:26:42.057Z,5.65
2017-03-03T01:27:42.076Z,5.58
2017-03-03T01:28:42.094Z,5.57
2017-03-03T01:29:42.116Z,5.58
2017-03-03T01:30:42.125Z,5.6
2017-03-03T01:31:41.770Z,5.6
2017-03-03T01:32:42.170Z,5.64
2017-03-03T01:33:41.810Z,5.48
2017-03-03T01:34:42.217Z,5.49
2017-03-03T01:35:42.224Z,5.49
2017-03-03T01:36:42.232Z,5.38
2017-03-03T01:38:42.271Z,5.49
2017-03-03T01:39:42.288Z,5.57
2017-03-03T01:40:42.312Z,5.46
2017-03-03T01:41:42.323Z,5.53
2017-03-03T01:42:42.349Z,5.56
2017-03-03T01:43:42.372Z,5.64
2017-03-03T01:44:56.903Z,5.64
2017-03-03T01:45:42.396Z,5.54
2017-03-03T01:46:42.429Z,5.45
2017-03-03T01:47:42.429Z,5.4
2017-03-03T01:48:56.991Z,5.49
2017-03-03T01:49:56.991Z,5.42
2017-03-03T01:50:42.483Z,5.39
2017-03-03T01:51:42.511Z,5.57
2017-03-03T01:52:42.547Z,5.46
2017-03-03T01:53:42.152Z,5.4
2017-03-03T01:55:42.583Z,5.36
2017-03-03T01:56:42.587Z,5.36
2017-03-03T01:57:42.625Z,5.3
2017-03-03T01:58:42.622Z,5.3
2017-03-03T01:59:42.647Z,5.27
2017-03-03T02:01:42.675Z,5.18
2017-03-03T02:02:42.706Z,5.15
2017-03-03T02:03:42.714Z,5.06
2017-03-03T02:04:42.726Z,5.02
2017-03-03T02:05:42.769Z,5.04
2017-03-03T02:06:42.763Z,5.03
2017-03-03T02:07:57.321Z,5.06
2017-03-03T02:08:42.803Z,4.96
2017-03-03T02:09:42.811Z,4.92
2017-03-03T02:10:42.830Z,4.97
2017-03-03T02:11:42.853Z,4.97
2017-03-03T02:12:42.871Z,4.92
2017-03-03T02:13:42.896Z,4.94
2017-03-03T02:14:42.904Z,4.94
2017-03-03T02:15:42.918Z,4.84
2017-03-03T02:16:57.467Z,4.91
2017-03-03T02:17:42.971Z,4.89
2017-03-03T02:18:42.986Z,4.88
2017-03-03T02:19:42.605Z,4.88
2017-03-03T02:20:43.008Z,4.99
2017-03-03T02:21:57.552Z,4.88
2017-03-03T02:22:43.042Z,4.89
2017-03-03T02:24:43.097Z,4.72
2017-03-03T02:25:42.707Z,4.72
2017-03-03T02:26:43.139Z,4.72
2017-03-03T02:27:43.139Z,4.72
2017-03-03T02:28:43.162Z,4.72
2017-03-03T02:29:57.699Z,4.7
2017-03-03T02:30:43.196Z,4.67
2017-03-03T02:31:43.200Z,4.65
2017-03-03T02:32:57.744Z,4.66
2017-03-03T02:33:57.764Z,4.66
2017-03-03T02:34:43.251Z,4.66
2017-03-03T02:35:43.273Z,4.58
2017-03-03T02:36:43.289Z,4.62
2017-03-03T02:38:43.321Z,4.66
2017-03-03T02:39:43.337Z,4.62
2017-03-03T02:40:43.354Z,4.65
2017-03-03T02:42:43.394Z,4.69
2017-03-03T02:43:43.025Z,4.52
2017-03-03T02:44:43.421Z,4.48
2017-03-03T02:45:43.458Z,4.44
2017-03-03T02:46:43.459Z,4.47
2017-03-03T02:47:58.007Z,4.37
2017-03-03T02:48:43.499Z,4.51
2017-03-03T02:49:43.509Z,4.44
2017-03-03T02:50:43.533Z,4.47
2017-03-03T02:51:43.556Z,4.51
2017-03-03T02:52:43.561Z,4.44
2017-03-03T02:53:58.105Z,4.55
2017-03-03T02:54:43.609Z,4.54
2017-03-03T02:55:43.622Z,4.51
2017-03-03T02:56:43.629Z,4.5
2017-03-03T02:57:43.645Z,4.41
2017-03-03T02:59:43.693Z,4.36
2017-03-03T03:00:43.711Z,4.45
2017-03-03T03:01:43.739Z,4.45
2017-03-03T03:02:43.754Z,4.3
2017-03-03T03:03:43.760Z,4.33
2017-03-03T03:04:43.771Z,4.34
2017-03-03T03:05:43.784Z,4.33
2017-03-03T03:06:43.814Z,4.34
2017-03-03T03:07:43.818Z,4.26
2017-03-03T03:08:43.842Z,4.18
2017-03-03T03:09:43.874Z,4.22
2017-03-03T03:10:43.876Z,4.4
2017-03-03T03:11:43.908Z,4.26
2017-03-03T03:12:43.901Z,4.24
2017-03-03T03:13:43.924Z,4.24
2017-03-03T03:14:43.938Z,4.06
2017-03-03T03:15:43.957Z,4.14
2017-03-03T03:16:43.997Z,4.04
2017-03-03T03:17:44.012Z,4.06
2017-03-03T03:18:44.013Z,4.05
2017-03-03T03:19:58.549Z,4.05
2017-03-03T03:20:58.572Z,4.06
2017-03-03T03:21:44.058Z,4.08
2017-03-03T03:22:44.084Z,4
2017-03-03T03:23:44.090Z,3.97
2017-03-03T03:24:58.636Z,4.02
2017-03-03T03:26:44.140Z,3.98
2017-03-03T03:27:44.163Z,3.98
2017-03-03T03:29:44.197Z,4
2017-03-03T03:31:58.765Z,3.94
2017-03-03T03:32:44.248Z,3.9
2017-03-03T03:33:44.259Z,3.84
2017-03-03T03:34:44.281Z,3.83
2017-03-03T03:35:58.436Z,3.86
2017-03-03T03:36:44.333Z,3.72
2017-03-03T03:37:44.329Z,3.73
2017-03-03T03:38:44.345Z,3.69
2017-03-03T03:39:44.361Z,3.8
2017-03-03T03:40:44.379Z,3.78
2017-03-03T03:41:44.397Z,3.73
2017-03-03T03:42:44.027Z,3.75
2017-03-03T03:43:44.435Z,3.62
2017-03-03T03:44:44.453Z,3.58
2017-03-03T03:45:44.487Z,3.61
2017-03-03T03:46:44.498Z,3.6
2017-03-03T03:47:44.499Z,3.65
2017-03-03T03:48:44.514Z,3.6
2017-03-03T03:49:59.072Z,3.62
2017-03-03T03:50:44.552Z,3.6
2017-03-03T03:51:59.093Z,3.62
2017-03-03T03:52:44.598Z,3.54
2017-03-03T03:53:44.603Z,3.7
2017-03-03T03:54:59.145Z,3.57
2017-03-03T03:55:44.647Z,3.61
2017-03-03T03:56:59.177Z,3.58
2017-03-03T03:57:44.668Z,3.58
2017-03-03T03:58:44.706Z,3.48
2017-03-03T04:00:44.727Z,3.4
2017-03-03T04:01:44.347Z,3.45
2017-03-03T04:02:44.753Z,3.35
2017-03-03T04:03:44.383Z,3.39
2017-03-03T04:04:44.789Z,3.39
2017-03-03T04:05:44.800Z,3.42
2017-03-03T04:06:44.818Z,3.35
2017-03-03T04:07:59.363Z,3.47
2017-03-03T04:08:44.851Z,3.5
2017-03-03T04:09:44.868Z,3.51
2017-03-03T04:10:44.882Z,3.42
2017-03-03T04:11:59.430Z,3.42
2017-03-03T04:12:44.933Z,3.36
2017-03-03T04:13:44.941Z,3.4
2017-03-03T04:14:44.956Z,3.5
2017-03-03T04:15:44.974Z,3.51
2017-03-03T04:16:44.983Z,3.47
2017-03-03T04:17:45.030Z,3.52
2017-03-03T04:18:45.023Z,3.54
2017-03-03T04:19:45.035Z,3.55
2017-03-03T04:20:45.052Z,3.45
2017-03-03T04:21:45.070Z,3.47
2017-03-03T04:22:59.613Z,3.28
2017-03-03T04:23:45.105Z,3.42
2017-03-03T04:24:45.117Z,3.47
2017-03-03T04:25:44.757Z,3.32
2017-03-03T04:26:45.184Z,3.39
2017-03-03T04:27:45.186Z,3.33
2017-03-03T04:28:45.197Z,3.36
2017-03-03T04:29:45.217Z,3.31
2017-03-03T04:30:45.220Z,3.52
2017-03-03T04:31:45.236Z,3.5
2017-03-03T04:32:59.790Z,3.36
2017-03-03T04:33:45.285Z,3.32
2017-03-03T04:34:45.292Z,3.35
2017-03-03T04:35:45.307Z,3.39
2017-03-03T04:36:45.322Z,3.36
2017-03-03T04:37:45.338Z,3.2
2017-03-03T04:38:45.352Z,3.17
2017-03-03T04:39:45.374Z,3.11
2017-03-03T04:40:45.398Z,3.18
2017-03-03T04:41:45.417Z,3.2
2017-03-03T04:42:45.421Z,3.18
2017-03-03T04:43:45.459Z,3.2
2017-03-03T04:45:00.376Z,3.11
2017-03-03T04:45:45.466Z,3.21
2017-03-03T04:46:45.486Z,3.15
2017-03-03T04:47:45.500Z,3.21
2017-03-03T04:49:45.543Z,3.06
2017-03-03T04:50:45.554Z,3.02
2017-03-03T04:52:00.101Z,3.05
2017-03-03T04:52:45.593Z,3.08
2017-03-03T04:53:45.603Z,3.18
2017-03-03T04:55:45.633Z,3.11
2017-03-03T04:56:45.646Z,3.08
2017-03-03T04:58:45.708Z,3.11
2017-03-03T05:00:00.224Z,3.11
2017-03-03T05:00:45.740Z,3.15
2017-03-03T05:01:45.744Z,3.17
2017-03-03T05:02:45.765Z,3.11
2017-03-03T05:03:45.786Z,3.17
2017-03-03T05:04:45.786Z,3.08
2017-03-03T05:05:45.821Z,3.1
2017-03-03T05:06:45.813Z,3.05
2017-03-03T05:07:45.828Z,3.05
2017-03-03T05:08:45.469Z,3.08
2017-03-03T05:09:45.873Z,3.11
2017-03-03T05:11:00.405Z,3.05
2017-03-03T05:11:45.894Z,3.18
2017-03-03T05:12:45.918Z,2.99
2017-03-03T05:13:45.944Z,3.06
2017-03-03T05:14:45.939Z,3
2017-03-03T05:15:45.956Z,3
2017-03-03T05:16:45.975Z,3.06
2017-03-03T05:17:46.001Z,3.02
2017-03-03T05:18:46.008Z,2.97
2017-03-03T05:19:46.022Z,2.96
2017-03-03T05:21:00.579Z,2.93
2017-03-03T05:21:46.062Z,2.96
2017-03-03T05:22:45.696Z,2.9
2017-03-03T05:24:46.106Z,2.9
2017-03-03T05:25:46.125Z,2.9
2017-03-03T05:27:45.769Z,2.92
2017-03-03T05:28:46.201Z,2.87
2017-03-03T05:29:46.191Z,2.87
2017-03-03T05:30:46.243Z,2.85
2017-03-03T05:31:46.219Z,2.85
2017-03-03T05:32:46.245Z,2.87
2017-03-03T05:33:46.251Z,2.81
2017-03-03T05:34:46.274Z,2.84
2017-03-03T05:35:46.283Z,2.95
2017-03-03T05:37:45.930Z,2.99
2017-03-03T05:38:46.338Z,2.96
2017-03-03T05:39:46.352Z,2.92
2017-03-03T05:40:46.366Z,2.93
2017-03-03T05:41:46.382Z,2.96
2017-03-03T05:43:00.926Z,2.97
2017-03-03T05:43:46.415Z,2.92
2017-03-03T05:44:46.449Z,2.84
2017-03-03T05:45:46.452Z,3
2017-03-03T05:46:46.468Z,3.02
2017-03-03T05:48:01.007Z,2.99
2017-03-03T05:49:01.023Z,3
2017-03-03T05:50:46.531Z,2.95
2017-03-03T05:51:46.545Z,2.93
2017-03-03T05:52:46.566Z,2.89
2017-03-03T05:53:46.579Z,2.89
2017-03-03T05:54:46.597Z,2.93
2017-03-03T05:56:46.625Z,2.81
2017-03-03T05:58:01.171Z,2.85
2017-03-03T05:58:46.671Z,2.84
2017-03-03T05:59:46.673Z,2.81
2017-03-03T06:01:01.221Z,2.9
2017-03-03T06:01:46.738Z,2.72
2017-03-03T06:02:46.727Z,2.85
2017-03-03T06:03:46.747Z,2.85
2017-03-03T06:04:46.757Z,2.82
2017-03-03T06:05:46.799Z,2.81
2017-03-03T06:06:46.798Z,2.75
2017-03-03T06:07:46.821Z,2.79
2017-03-03T06:08:46.822Z,2.84
2017-03-03T06:09:46.842Z,2.92
2017-03-03T06:10:46.879Z,2.9
2017-03-03T06:11:46.871Z,2.95
2017-03-03T06:12:46.897Z,2.84
2017-03-03T06:13:46.906Z,2.9
2017-03-03T06:14:46.920Z,2.95
2017-03-03T06:15:46.952Z,2.92
2017-03-03T06:16:46.972Z,3.03
2017-03-03T06:17:46.970Z,3.03
2017-03-03T06:18:47.001Z,2.99
2017-03-03T06:19:47.002Z,3
2017-03-03T06:20:47.017Z,3.05
2017-03-03T06:21:47.040Z,3.03
2017-03-03T06:22:47.051Z,3.13
2017-03-03T06:23:47.093Z,3.14
2017-03-03T06:24:47.096Z,3.18
2017-03-03T06:25:46.716Z,3.26
2017-03-03T06:26:47.130Z,3.35
2017-03-03T06:27:47.143Z,3.39
2017-03-03T06:28:47.153Z,3.62
2017-03-03T06:30:01.701Z,3.51
2017-03-03T06:30:47.190Z,3.55
2017-03-03T06:31:47.220Z,3.68
2017-03-03T06:32:47.226Z,3.62
2017-03-03T06:33:46.871Z,3.68
2017-03-03T06:34:47.268Z,3.73
2017-03-03T06:35:47.286Z,3.93
2017-03-03T06:36:47.304Z,4.02
2017-03-03T06:39:47.377Z,4.24
2017-03-03T06:40:47.388Z,4.3
2017-03-03T06:41:47.421Z,4.33
2017-03-03T06:42:47.441Z,4.37
2017-03-03T06:43:47.445Z,4.63
2017-03-03T06:44:47.471Z,4.73
2017-03-03T06:46:02.022Z,4.85
2017-03-03T06:46:47.513Z,4.88
2017-03-03T06:47:47.535Z,4.94
2017-03-03T06:48:47.569Z,4.97
2017-03-03T06:49:47.594Z,5.02
2017-03-03T06:50:47.626Z,5.1
2017-03-03T06:52:02.170Z,5.28
2017-03-03T06:52:47.660Z,5.27
2017-03-03T06:53:47.674Z,5.42
2017-03-03T06:55:47.719Z,5.36
2017-03-03T06:56:47.743Z,5.42
2017-03-03T06:57:47.847Z,5.45
2017-03-03T06:58:47.808Z,5.6
2017-03-03T06:59:47.864Z,5.57
2017-03-03T07:00:47.847Z,5.6
2017-03-03T07:02:47.886Z,5.65
2017-03-03T07:03:47.914Z,5.72
2017-03-03T07:04:47.957Z,5.76
2017-03-03T07:06:02.487Z,5.82
2017-03-03T07:06:47.979Z,5.85
2017-03-03T07:08:48.041Z,6.14
2017-03-03T07:09:48.064Z,6.11
2017-03-03T07:10:48.092Z,6.14
2017-03-03T07:12:48.141Z,6.19
2017-03-03T07:13:48.154Z,6.17
2017-03-03T07:14:48.209Z,6.17
2017-03-03T07:15:48.228Z,6.3
2017-03-03T07:16:48.227Z,6.28
2017-03-03T07:18:02.783Z,6.36
2017-03-03T07:18:48.284Z,6.4
2017-03-03T07:19:48.316Z,6.64
2017-03-03T07:20:48.326Z,6.66
2017-03-03T07:21:48.350Z,6.73
2017-03-03T07:22:48.387Z,6.71
2017-03-03T07:23:48.403Z,6.77
2017-03-03T07:24:48.427Z,6.8
2017-03-03T07:25:48.452Z,7.05
2017-03-03T07:26:48.479Z,7.07
2017-03-03T07:27:48.507Z,7.13
2017-03-03T07:28:48.155Z,7.35
2017-03-03T07:30:02.707Z,7.46
2017-03-03T07:30:48.583Z,7.35
2017-03-03T07:31:48.605Z,7.4
2017-03-03T07:33:03.159Z,7.42
2017-03-03T07:33:48.669Z,7.49
2017-03-03T07:34:48.683Z,7.68
2017-03-03T07:35:48.703Z,7.68
2017-03-03T07:36:48.729Z,7.67
2017-03-03T07:37:48.766Z,7.83
2017-03-03T07:38:48.785Z,7.87
2017-03-03T07:39:48.804Z,7.79
2017-03-03T07:40:48.835Z,7.83
2017-03-03T07:41:48.867Z,7.89
2017-03-03T07:42:48.892Z,8
2017-03-03T07:43:48.914Z,8.11
2017-03-03T07:44:48.944Z,8.1
2017-03-03T07:45:48.959Z,8.28
2017-03-03T07:46:48.987Z,8.34
2017-03-03T07:47:49.006Z,8.23
2017-03-03T07:48:49.037Z,8.16
2017-03-03T07:49:49.059Z,8.15
2017-03-03T07:50:49.090Z,8.08
2017-03-03T07:51:49.109Z,8.19
2017-03-03T07:52:49.134Z,8.28
2017-03-03T07:53:49.156Z,8.3
2017-03-03T07:54:49.189Z,8.3
2017-03-03T07:55:49.225Z,8.4
2017-03-03T07:56:49.281Z,8.36
2017-03-03T07:57:49.268Z,8.44
2017-03-03T07:59:49.329Z,8.44
2017-03-03T08:00:49.371Z,8.48
2017-03-03T08:01:49.358Z,8.53
2017-03-03T08:03:03.919Z,8.63
2017-03-03T08:03:49.407Z,8.66
2017-03-03T08:05:03.962Z,8.71
2017-03-03T08:05:49.469Z,8.76
2017-03-03T08:06:49.488Z,8.79
2017-03-03T08:07:49.524Z,8.87
2017-03-03T08:09:04.061Z,9.02
2017-03-03T08:09:49.555Z,9.08
2017-03-03T08:10:49.591Z,9.26
2017-03-03T08:11:49.625Z,9.33
2017-03-03T08:12:49.638Z,9.35
2017-03-03T08:13:49.656Z,9.31
2017-03-03T08:14:49.681Z,9.39
2017-03-03T08:16:49.741Z,9.36
2017-03-03T08:17:49.771Z,9.38
2017-03-03T08:18:49.778Z,9.43
2017-03-03T08:19:49.813Z,9.43
2017-03-03T08:21:04.356Z,9.46
2017-03-03T08:22:04.385Z,9.56
2017-03-03T08:22:49.871Z,9.58
2017-03-03T08:23:49.900Z,9.54
2017-03-03T08:25:04.454Z,9.6
2017-03-03T08:25:49.947Z,9.69
2017-03-03T08:27:49.995Z,9.65
2017-03-03T08:28:50.026Z,9.69
2017-03-03T08:29:50.044Z,9.69
2017-03-03T08:30:50.293Z,9.64
2017-03-03T08:31:50.091Z,9.84
2017-03-03T08:32:50.119Z,9.81
2017-03-03T08:33:50.141Z,9.9
2017-03-03T08:34:50.167Z,9.87
2017-03-03T08:35:50.200Z,10.02
2017-03-03T08:37:04.747Z,10.02
2017-03-03T08:37:50.237Z,9.97
2017-03-03T08:39:04.797Z,9.91
2017-03-03T08:39:50.290Z,9.86
2017-03-03T08:40:50.311Z,9.94
2017-03-03T08:42:04.866Z,9.9
2017-03-03T08:43:04.890Z,10.02
2017-03-03T08:43:50.397Z,9.97
2017-03-03T08:44:50.419Z,10.01
2017-03-03T08:46:50.468Z,9.97
2017-03-03T08:47:50.485Z,10.08
2017-03-03T08:48:50.519Z,10.04
2017-03-03T08:49:50.534Z,9.99
2017-03-03T08:50:50.553Z,10.01
2017-03-03T08:51:50.582Z,10.05
2017-03-03T08:53:05.131Z,10.04
2017-03-03T08:53:50.624Z,10.05
2017-03-03T08:54:50.651Z,10.01
2017-03-03T08:55:50.672Z,9.96
2017-03-03T08:56:50.742Z,9.94
2017-03-03T08:57:50.732Z,9.86
2017-03-03T08:58:50.752Z,9.86
2017-03-03T08:59:50.784Z,9.9
2017-03-03T09:00:50.813Z,9.99
2017-03-03T09:01:50.826Z,10.04
2017-03-03T09:02:50.849Z,10.11
2017-03-03T09:03:50.899Z,10.2
2017-03-03T09:04:50.906Z,10.22
2017-03-03T09:05:50.913Z,10.2
2017-03-03T09:06:50.945Z,10.26
2017-03-03T09:08:05.500Z,10.25
2017-03-03T09:08:50.982Z,10.41
2017-03-03T09:09:51.014Z,10.48
2017-03-03T09:10:51.032Z,10.64
2017-03-03T09:11:51.056Z,10.74
2017-03-03T09:12:51.083Z,10.66
2017-03-03T09:13:51.103Z,10.61
2017-03-03T09:15:51.186Z,10.73
2017-03-03T09:16:51.180Z,10.79
2017-03-03T09:17:51.210Z,10.81
2017-03-03T09:18:51.223Z,10.7
2017-03-03T09:19:51.259Z,10.88
2017-03-03T09:20:51.269Z,10.91
2017-03-03T09:21:51.301Z,10.88
2017-03-03T09:22:51.332Z,11
2017-03-03T09:23:51.343Z,11.03
2017-03-03T09:24:51.373Z,10.92
2017-03-03T09:26:51.415Z,11.03
2017-03-03T09:27:51.439Z,11.04
2017-03-03T09:29:05.992Z,11.15
2017-03-03T09:29:51.505Z,11.22
2017-03-03T09:30:51.125Z,11.22
2017-03-03T09:31:51.542Z,11.33
2017-03-03T09:32:51.558Z,11.24
2017-03-03T09:33:51.606Z,11.35
2017-03-03T09:34:51.606Z,11.43
2017-03-03T09:36:06.169Z,11.36
2017-03-03T09:36:51.658Z,11.42
2017-03-03T09:37:51.681Z,11.36
2017-03-03T09:38:51.707Z,11.51
2017-03-03T09:40:06.274Z,11.36
2017-03-03T09:40:51.758Z,11.37
2017-03-03T09:42:06.307Z,11.46
2017-03-03T09:42:51.801Z,11.47
2017-03-03T09:44:06.351Z,11.58
2017-03-03T09:45:06.391Z,11.52
2017-03-03T09:46:06.398Z,11.64
2017-03-03T09:46:51.893Z,11.7
2017-03-03T09:47:51.945Z,11.69
2017-03-03T09:48:51.971Z,11.65
2017-03-03T09:49:51.972Z,11.75
2017-03-03T09:50:51.996Z,11.98
2017-03-03T09:52:52.049Z,12.16
2017-03-03T09:53:52.062Z,12.21
2017-03-03T09:54:52.088Z,12.23
2017-03-03T09:56:06.667Z,12.14
2017-03-03T09:56:52.138Z,12.34
2017-03-03T09:57:52.163Z,12.49
2017-03-03T09:58:52.202Z,12.53
2017-03-03T09:59:52.207Z,12.54
2017-03-03T10:00:52.255Z,12.54
2017-03-03T10:01:52.287Z,12.74
2017-03-03T10:02:52.282Z,12.79
2017-03-03T10:03:52.307Z,12.7
2017-03-03T10:04:52.330Z,12.65
2017-03-03T10:05:52.361Z,12.67
2017-03-03T10:06:52.380Z,12.65
2017-03-03T10:07:52.408Z,12.62
2017-03-03T10:08:52.431Z,12.65
2017-03-03T10:09:52.467Z,12.68
2017-03-03T10:10:52.493Z,12.65
2017-03-03T10:12:07.038Z,12.77
2017-03-03T10:12:52.524Z,12.9
2017-03-03T10:13:52.554Z,12.93
2017-03-03T10:15:07.108Z,12.95
2017-03-03T10:15:52.600Z,12.92
2017-03-03T10:16:52.621Z,12.93
2017-03-03T10:18:52.703Z,12.82
2017-03-03T10:19:52.708Z,12.57
2017-03-03T10:21:52.748Z,12.75
2017-03-03T10:22:52.771Z,12.65
2017-03-03T10:23:52.808Z,12.7
2017-03-03T10:24:52.840Z,12.68
2017-03-03T10:25:52.875Z,12.71
2017-03-03T10:26:52.869Z,12.71
2017-03-03T10:28:07.039Z,12.71
2017-03-03T10:28:52.919Z,12.65
2017-03-03T10:29:52.948Z,12.71
2017-03-03T10:30:52.969Z,12.65
2017-03-03T10:31:53.004Z,12.64
2017-03-03T10:33:07.547Z,12.65
2017-03-03T10:33:53.243Z,12.52
2017-03-03T10:34:53.072Z,12.42
2017-03-03T10:36:53.117Z,12.41
2017-03-03T10:37:53.141Z,12.45
2017-03-03T10:38:53.171Z,12.5
2017-03-03T10:39:53.193Z,12.49
2017-03-03T10:40:53.215Z,12.47
2017-03-03T10:41:53.234Z,12.41
2017-03-03T10:43:53.284Z,12.31
2017-03-03T10:44:53.306Z,12.23
2017-03-03T10:45:53.332Z,12.2
2017-03-03T10:46:53.357Z,12.19
2017-03-03T10:48:07.910Z,12.23
2017-03-03T10:48:53.407Z,12.23
2017-03-03T10:49:53.433Z,12.28
2017-03-03T10:50:53.453Z,12.24
2017-03-03T10:51:53.475Z,12.28
2017-03-03T10:52:53.498Z,12.17
2017-03-03T10:54:53.550Z,12.1
2017-03-03T10:56:08.106Z,12.13
2017-03-03T10:56:53.592Z,12.2
2017-03-03T10:57:53.620Z,12.01
2017-03-03T10:59:08.175Z,11.94
2017-03-03T10:59:53.663Z,11.96
2017-03-03T11:00:53.685Z,12.01
2017-03-03T11:01:53.722Z,12.09
2017-03-03T11:02:53.740Z,12.01
2017-03-03T11:03:53.374Z,12.04
2017-03-03T11:04:53.781Z,12.1
2017-03-03T11:05:53.819Z,12.1
2017-03-03T11:06:53.825Z,12.2
2017-03-03T11:07:53.904Z,12.04
2017-03-03T11:09:53.900Z,12.1
2017-03-03T11:11:53.941Z,12.05
2017-03-03T11:12:53.977Z,12.02
2017-03-03T11:13:53.990Z,12.05
2017-03-03T11:15:08.552Z,12.17
2017-03-03T11:15:54.044Z,12.07
2017-03-03T11:16:54.055Z,12.09
2017-03-03T11:17:54.081Z,12.17
2017-03-03T11:19:08.634Z,12.1
2017-03-03T11:19:53.739Z,12.14
2017-03-03T11:20:54.184Z,12.34
2017-03-03T11:21:54.181Z,12.29
2017-03-03T11:22:54.194Z,12.38
2017-03-03T11:23:54.240Z,12.24
2017-03-03T11:24:54.244Z,12.27
2017-03-03T11:25:54.282Z,12.17
2017-03-03T11:26:54.288Z,12.21
2017-03-03T11:27:54.321Z,12.28
2017-03-03T11:28:54.342Z,12.24
2017-03-03T11:29:54.377Z,12.29
2017-03-03T11:31:54.402Z,12.12
2017-03-03T11:32:54.425Z,12.13
2017-03-03T11:33:54.472Z,12.16
2017-03-03T11:34:54.092Z,11.99
2017-03-03T11:35:54.108Z,11.96
2017-03-03T11:36:54.128Z,12.01
2017-03-03T11:37:54.542Z,12.05
2017-03-03T11:38:54.587Z,12.07
2017-03-03T11:39:54.213Z,12.05
2017-03-03T11:40:54.613Z,12.01
2017-03-03T11:41:54.633Z,11.98
2017-03-03T11:42:54.664Z,12.02
2017-03-03T11:43:54.675Z,11.96
2017-03-03T11:44:54.716Z,12.04
2017-03-03T11:45:54.723Z,12.05
2017-03-03T11:47:09.274Z,12.02
2017-03-03T11:47:54.923Z,12.19
2017-03-03T11:48:54.793Z,12.13
2017-03-03T11:49:54.829Z,12.12
2017-03-03T11:50:54.835Z,12.17
2017-03-03T11:52:09.387Z,12.04
2017-03-03T11:52:54.896Z,11.96
2017-03-03T11:53:54.906Z,12.09
2017-03-03T11:54:54.938Z,12.12
2017-03-03T11:55:55.500Z,12.07
2017-03-03T11:56:54.999Z,12.01
2017-03-03T11:57:54.996Z,12.13
2017-03-03T11:58:55.023Z,12.04
2017-03-03T11:59:55.059Z,12.14
2017-03-03T12:00:55.065Z,12.09
2017-03-03T12:01:55.098Z,12.17
2017-03-03T12:03:09.637Z,12.24
2017-03-03T12:03:55.133Z,12.23
2017-03-03T12:04:55.156Z,12.28
2017-03-03T12:05:55.183Z,12.21
2017-03-03T12:07:09.729Z,12.14
2017-03-03T12:07:55.224Z,12.16
2017-03-03T12:08:55.245Z,12.34
2017-03-03T12:09:55.287Z,12.38
2017-03-03T12:10:55.301Z,12.32
2017-03-03T12:11:55.316Z,12.35
2017-03-03T12:12:55.346Z,12.27
2017-03-03T12:13:55.375Z,12.2
2017-03-03T12:14:55.387Z,12.19
2017-03-03T12:15:55.402Z,12.14
2017-03-03T12:16:55.424Z,12.21
2017-03-03T12:18:09.986Z,12.23
2017-03-03T12:18:55.472Z,12.27
2017-03-03T12:19:55.501Z,12.29
2017-03-03T12:22:10.070Z,12.37
2017-03-03T12:22:55.563Z,12.37
2017-03-03T12:23:55.587Z,12.38
2017-03-03T12:24:55.611Z,12.39
2017-03-03T12:25:55.637Z,12.38
2017-03-03T12:26:55.653Z,12.35
2017-03-03T12:27:55.694Z,12.32
2017-03-03T12:28:55.699Z,12.38
2017-03-03T12:29:55.721Z,12.35
2017-03-03T12:30:55.742Z,12.37
2017-03-03T12:31:55.768Z,12.42
2017-03-03T12:32:55.788Z,12.41
2017-03-03T12:33:55.810Z,12.46
2017-03-03T12:34:55.859Z,12.52
2017-03-03T12:35:55.861Z,12.62
2017-03-03T12:37:55.903Z,12.42
2017-03-03T12:38:55.929Z,12.32
2017-03-03T12:40:10.475Z,12.41
2017-03-03T12:40:55.989Z,12.31
2017-03-03T12:41:56.000Z,12.39
2017-03-03T12:42:56.270Z,12.39
2017-03-03T12:43:56.040Z,12.35
2017-03-03T12:44:56.063Z,12.38
2017-03-03T12:45:56.091Z,12.37
2017-03-03T12:46:56.109Z,12.41
2017-03-03T12:47:56.125Z,12.35
2017-03-03T12:48:55.786Z,12.37
2017-03-03T12:50:10.704Z,12.37
2017-03-03T12:50:56.245Z,12.37
2017-03-03T12:51:56.219Z,12.35
2017-03-03T12:52:56.249Z,12.35
2017-03-03T12:54:56.314Z,12.34
2017-03-03T12:56:10.839Z,12.31
2017-03-03T12:56:56.333Z,12.27
2017-03-03T12:57:56.377Z,12.21
2017-03-03T12:58:56.383Z,12.17
2017-03-03T12:59:56.449Z,12.19
2017-03-03T13:00:56.427Z,12.23
2017-03-03T13:01:56.442Z,12.28
2017-03-03T13:02:56.478Z,12.27
2017-03-03T13:03:56.500Z,12.31
2017-03-03T13:04:56.512Z,12.34
2017-03-03T13:06:10.686Z,12.29
2017-03-03T13:06:56.558Z,12.27
2017-03-03T13:07:56.582Z,12.31
2017-03-03T13:08:56.603Z,12.23
2017-03-03T13:09:56.629Z,12.24
2017-03-03T13:10:56.278Z,12.24
2017-03-03T13:11:56.309Z,12.28
2017-03-03T13:13:10.836Z,12.17
2017-03-03T13:13:56.728Z,12.19
2017-03-03T13:15:10.880Z,12.28
2017-03-03T13:15:56.386Z,12.23
2017-03-03T13:16:56.806Z,12.38
2017-03-03T13:17:56.424Z,12.31
2017-03-03T13:18:56.833Z,12.24
2017-03-03T13:19:56.863Z,12.2
2017-03-03T13:20:56.881Z,12.24
2017-03-03T13:22:11.423Z,12.17
2017-03-03T13:22:56.532Z,12.27
2017-03-03T13:23:56.941Z,12.35
2017-03-03T13:24:56.961Z,12.41
2017-03-03T13:25:56.996Z,12.37
2017-03-03T13:26:56.633Z,12.37
2017-03-03T13:27:57.048Z,12.37
2017-03-03T13:28:57.060Z,12.27
2017-03-03T13:29:57.076Z,12.29
2017-03-03T13:30:57.100Z,12.28
2017-03-03T13:33:57.163Z,12.28
2017-03-03T13:34:57.193Z,12.27
2017-03-03T13:35:57.211Z,12.27
2017-03-03T13:36:57.232Z,12.34
2017-03-03T13:38:11.785Z,12.37
2017-03-03T13:38:57.294Z,12.29
2017-03-03T13:39:57.301Z,12.39
2017-03-03T13:40:57.321Z,12.35
2017-03-03T13:41:57.358Z,12.37
2017-03-03T13:42:57.407Z,12.27
2017-03-03T13:43:57.403Z,12.35
2017-03-03T13:44:57.420Z,12.35
2017-03-03T13:45:57.442Z,12.31
2017-03-03T13:46:57.084Z,12.35
2017-03-03T13:47:57.482Z,12.37
2017-03-03T13:49:57.151Z,12.37
2017-03-03T13:50:57.549Z,12.38
2017-03-03T13:51:57.571Z,12.45
2017-03-03T13:53:12.124Z,12.46
2017-03-03T13:53:57.233Z,12.42
2017-03-03T13:54:57.642Z,12.34
2017-03-03T13:56:12.193Z,12.35
2017-03-03T13:56:57.710Z,12.38
2017-03-03T13:57:57.711Z,12.37
2017-03-03T13:58:57.743Z,12.39
2017-03-03T13:59:57.765Z,12.52
2017-03-03T14:00:57.777Z,12.46
2017-03-03T14:01:57.813Z,12.49
2017-03-03T14:03:12.360Z,12.46